createdAt,value
2018-05-15T00:00:03.808Z,18.31
2018-05-15T00:01:03.831Z,18.38
2018-05-15T00:02:03.859Z,18.23
2018-05-15T00:03:03.881Z,18.34
2018-05-15T00:04:03.901Z,18.26
2018-05-15T00:05:03.975Z,18.15
2018-05-15T00:06:03.948Z,18.15
2018-05-15T00:07:03.971Z,18.05
2018-05-15T00:08:03.997Z,18.01
2018-05-15T00:09:04.021Z,17.92
2018-05-15T00:10:04.043Z,17.95
2018-05-15T00:11:04.065Z,17.97
2018-05-15T00:12:04.089Z,18.03
2018-05-15T00:13:04.114Z,17.90
2018-05-15T00:14:04.136Z,17.85
2018-05-15T00:15:04.159Z,17.86
2018-05-15T00:16:04.183Z,17.80
2018-05-15T00:17:04.205Z,17.85
2018-05-15T00:18:04.229Z,17.82
2018-05-15T00:19:04.251Z,17.74
2018-05-15T00:20:04.273Z,17.80
2018-05-15T00:21:04.297Z,17.72
2018-05-15T00:22:04.322Z,17.74
2018-05-15T00:23:04.344Z,17.76
2018-05-15T00:24:04.367Z,17.68
2018-05-15T00:25:04.390Z,17.68
2018-05-15T00:26:04.413Z,17.72
2018-05-15T00:27:04.439Z,17.78
2018-05-15T00:28:04.459Z,17.72
2018-05-15T00:29:04.483Z,17.71
2018-05-15T00:30:04.505Z,17.68
2018-05-15T00:31:04.528Z,17.74
2018-05-15T00:32:04.550Z,17.76
2018-05-15T00:33:04.575Z,17.67
2018-05-15T00:34:04.602Z,17.65
2018-05-15T00:35:04.619Z,17.64
2018-05-15T00:36:04.642Z,17.65
2018-05-15T00:37:04.667Z,17.51
2018-05-15T00:38:04.690Z,17.63
2018-05-15T00:39:04.725Z,17.52
2018-05-15T00:40:04.735Z,17.60
2018-05-15T00:41:04.757Z,17.57
2018-05-15T00:42:04.782Z,17.59
2018-05-15T00:43:04.804Z,17.68
2018-05-15T00:44:04.826Z,17.63
2018-05-15T00:45:04.851Z,17.59
2018-05-15T00:46:04.875Z,17.52
2018-05-15T00:47:04.893Z,17.54
2018-05-15T00:48:04.916Z,17.48
2018-05-15T00:49:04.939Z,17.51
2018-05-15T00:50:04.962Z,17.48
2018-05-15T00:51:04.985Z,17.51
2018-05-15T00:52:05.013Z,17.52
2018-05-15T00:53:05.031Z,17.52
2018-05-15T00:54:05.057Z,17.57
2018-05-15T00:55:05.126Z,17.46
2018-05-15T00:56:05.107Z,17.52
2018-05-15T00:57:05.122Z,17.57
2018-05-15T00:58:05.145Z,17.41
2018-05-15T00:59:05.167Z,17.42
2018-05-15T01:00:05.190Z,17.49
2018-05-15T01:01:05.213Z,17.52
2018-05-15T01:02:05.236Z,17.52
2018-05-15T01:03:05.258Z,17.57
2018-05-15T01:04:05.280Z,17.57
2018-05-15T01:05:05.304Z,17.54
2018-05-15T01:06:05.326Z,17.44
2018-05-15T01:07:05.347Z,17.52
2018-05-15T01:08:05.370Z,17.41
2018-05-15T01:09:05.471Z,17.39
2018-05-15T01:10:05.416Z,17.42
2018-05-15T01:11:05.439Z,17.39
2018-05-15T01:12:05.463Z,17.38
2018-05-15T01:13:05.486Z,17.23
2018-05-15T01:14:05.508Z,17.34
2018-05-15T01:15:05.530Z,17.24
2018-05-15T01:16:05.552Z,17.26
2018-05-15T01:17:05.576Z,17.24
2018-05-15T01:18:05.649Z,17.24
2018-05-15T01:19:05.620Z,17.26
2018-05-15T01:20:05.644Z,17.27
2018-05-15T01:21:05.667Z,17.24
2018-05-15T01:22:05.689Z,17.24
2018-05-15T01:23:05.711Z,17.29
2018-05-15T01:24:05.735Z,17.20
2018-05-15T01:25:05.756Z,17.19
2018-05-15T01:26:05.780Z,17.15
2018-05-15T01:27:05.802Z,17.09
2018-05-15T01:28:05.824Z,17.12
2018-05-15T01:29:05.848Z,17.08
2018-05-15T01:30:05.871Z,17.05
2018-05-15T01:31:05.892Z,17.05
2018-05-15T01:32:05.915Z,17.06
2018-05-15T01:33:05.937Z,17.08
2018-05-15T01:34:05.960Z,17.05
2018-05-15T01:35:06.042Z,17.08
2018-05-15T01:36:06.008Z,17.11
2018-05-15T01:37:06.028Z,17.08
2018-05-15T01:38:06.050Z,17.06
2018-05-15T01:39:06.077Z,17.12
2018-05-15T01:40:06.094Z,17.04
2018-05-15T01:41:06.117Z,17.02
2018-05-15T01:42:06.140Z,16.96
2018-05-15T01:43:06.161Z,16.97
2018-05-15T01:44:06.184Z,16.90
2018-05-15T01:45:06.208Z,16.94
2018-05-15T01:46:06.231Z,16.83
2018-05-15T01:47:06.252Z,16.93
2018-05-15T01:48:06.278Z,16.93
2018-05-15T01:49:06.296Z,16.81
2018-05-15T01:50:06.320Z,16.86
2018-05-15T01:51:06.344Z,16.84
2018-05-15T01:52:06.365Z,16.84
2018-05-15T01:53:06.386Z,16.83
2018-05-15T01:54:06.409Z,16.86
2018-05-15T01:55:06.431Z,16.86
2018-05-15T01:56:06.453Z,16.84
2018-05-15T01:57:06.475Z,16.79
2018-05-15T01:58:06.499Z,16.78
2018-05-15T01:59:06.519Z,16.72
2018-05-15T02:00:06.542Z,16.76
2018-05-15T02:01:06.563Z,16.79
2018-05-15T02:02:06.587Z,16.69
2018-05-15T02:03:06.610Z,16.72
2018-05-15T02:04:06.631Z,16.75
2018-05-15T02:05:06.654Z,16.78
2018-05-15T02:06:06.676Z,16.71
2018-05-15T02:07:06.696Z,16.74
2018-05-15T02:08:06.720Z,16.71
2018-05-15T02:09:06.744Z,16.68
2018-05-15T02:10:06.765Z,16.68
2018-05-15T02:11:06.786Z,16.66
2018-05-15T02:12:06.809Z,16.61
2018-05-15T02:13:06.831Z,16.66
2018-05-15T02:14:06.855Z,16.68
2018-05-15T02:15:06.874Z,16.68
2018-05-15T02:16:06.899Z,16.74
2018-05-15T02:17:06.920Z,16.60
2018-05-15T02:18:06.943Z,16.65
2018-05-15T02:19:06.964Z,16.66
2018-05-15T02:20:06.990Z,16.66
2018-05-15T02:21:07.052Z,16.60
2018-05-15T02:22:07.030Z,16.61
2018-05-15T02:23:07.053Z,16.58
2018-05-15T02:24:07.077Z,16.54
2018-05-15T02:25:07.099Z,16.58
2018-05-15T02:26:07.120Z,16.57
2018-05-15T02:27:07.142Z,16.53
2018-05-15T02:28:07.163Z,16.50
2018-05-15T02:29:07.186Z,16.53
2018-05-15T02:30:07.208Z,16.54
2018-05-15T02:31:07.230Z,16.56
2018-05-15T02:32:07.252Z,16.56
2018-05-15T02:33:07.274Z,16.51
2018-05-15T02:34:07.299Z,16.56
2018-05-15T02:35:07.344Z,16.54
2018-05-15T02:36:07.345Z,16.54
2018-05-15T02:37:07.368Z,16.47
2018-05-15T02:38:07.387Z,16.50
2018-05-15T02:39:07.406Z,16.42
2018-05-15T02:40:07.428Z,16.41
2018-05-15T02:41:07.450Z,16.43
2018-05-15T02:42:07.473Z,16.35
2018-05-15T02:43:07.495Z,16.35
2018-05-15T02:44:07.518Z,16.46
2018-05-15T02:45:07.540Z,16.46
2018-05-15T02:46:07.561Z,16.39
2018-05-15T02:47:07.583Z,16.31
2018-05-15T02:48:07.606Z,16.33
2018-05-15T02:49:07.628Z,16.32
2018-05-15T02:50:07.649Z,16.35
2018-05-15T02:51:07.671Z,16.36
2018-05-15T02:52:07.694Z,16.35
2018-05-15T02:53:07.717Z,16.35
2018-05-15T02:54:07.739Z,16.26
2018-05-15T02:55:07.758Z,16.38
2018-05-15T02:56:07.781Z,16.24
2018-05-15T02:57:07.804Z,16.26
2018-05-15T02:58:07.826Z,16.31
2018-05-15T02:59:07.847Z,16.29
2018-05-15T03:00:07.869Z,16.28
2018-05-15T03:01:07.891Z,16.29
2018-05-15T03:02:07.914Z,16.29
2018-05-15T03:03:07.936Z,16.29
2018-05-15T03:04:07.958Z,16.17
2018-05-15T03:05:07.979Z,16.20
2018-05-15T03:06:08.002Z,16.15
2018-05-15T03:07:08.023Z,16.17
2018-05-15T03:08:08.044Z,16.24
2018-05-15T03:09:08.066Z,16.15
2018-05-15T03:10:08.090Z,16.12
2018-05-15T03:11:08.112Z,16.13
2018-05-15T03:12:08.141Z,16.15
2018-05-15T03:13:08.158Z,16.01
2018-05-15T03:14:08.177Z,16.00
2018-05-15T03:15:08.199Z,16.01
2018-05-15T03:16:08.270Z,15.92
2018-05-15T03:17:08.243Z,15.92
2018-05-15T03:18:08.265Z,15.91
2018-05-15T03:19:08.285Z,15.86
2018-05-15T03:20:08.311Z,15.77
2018-05-15T03:21:08.331Z,15.77
2018-05-15T03:22:08.354Z,15.68
2018-05-15T03:23:08.373Z,15.73
2018-05-15T03:24:08.399Z,15.77
2018-05-15T03:25:08.420Z,15.72
2018-05-15T03:26:08.439Z,15.79
2018-05-15T03:27:08.461Z,15.75
2018-05-15T03:28:08.487Z,15.72
2018-05-15T03:29:08.505Z,15.70
2018-05-15T03:30:08.526Z,15.67
2018-05-15T03:31:08.547Z,15.58
2018-05-15T03:32:08.569Z,15.55
2018-05-15T03:33:08.591Z,15.51
2018-05-15T03:34:08.619Z,15.44
2018-05-15T03:35:08.634Z,15.49
2018-05-15T03:36:08.657Z,15.47
2018-05-15T03:37:08.680Z,15.40
2018-05-15T03:38:08.699Z,15.39
2018-05-15T03:39:08.721Z,15.44
2018-05-15T03:40:08.743Z,15.39
2018-05-15T03:41:08.768Z,15.47
2018-05-15T03:42:08.837Z,15.40
2018-05-15T03:43:08.809Z,15.37
2018-05-15T03:44:08.829Z,15.35
2018-05-15T03:45:08.853Z,15.40
2018-05-15T03:46:08.874Z,15.42
2018-05-15T03:47:08.894Z,15.31
2018-05-15T03:48:08.916Z,15.40
2018-05-15T03:49:08.952Z,15.40
2018-05-15T03:50:08.961Z,15.35
2018-05-15T03:51:08.980Z,15.44
2018-05-15T03:52:09.001Z,15.37
2018-05-15T03:53:09.024Z,15.37
2018-05-15T03:54:09.045Z,15.35
2018-05-15T03:55:09.066Z,15.46
2018-05-15T03:56:09.089Z,15.44
2018-05-15T03:57:09.111Z,15.40
2018-05-15T03:58:09.133Z,15.37
2018-05-15T03:59:09.153Z,15.37
2018-05-15T04:00:09.175Z,15.43
2018-05-15T04:01:09.196Z,15.31
2018-05-15T04:02:09.218Z,15.28
2018-05-15T04:03:09.239Z,15.31
2018-05-15T04:04:09.261Z,15.27
2018-05-15T04:05:09.283Z,15.35
2018-05-15T04:06:09.304Z,15.35
2018-05-15T04:07:09.325Z,15.28
2018-05-15T04:08:09.346Z,15.29
2018-05-15T04:09:09.368Z,15.36
2018-05-15T04:10:09.393Z,15.29
2018-05-15T04:11:09.456Z,15.37
2018-05-15T04:12:09.433Z,15.36
2018-05-15T04:13:09.454Z,15.36
2018-05-15T04:14:09.477Z,15.29
2018-05-15T04:15:09.497Z,15.39
2018-05-15T04:16:09.519Z,15.39
2018-05-15T04:17:09.540Z,15.31
2018-05-15T04:18:09.562Z,15.36
2018-05-15T04:19:09.583Z,15.31
2018-05-15T04:20:09.605Z,15.29
2018-05-15T04:21:09.627Z,15.28
2018-05-15T04:22:09.651Z,15.22
2018-05-15T04:23:09.670Z,15.24
2018-05-15T04:24:09.691Z,15.35
2018-05-15T04:25:09.713Z,15.24
2018-05-15T04:26:09.735Z,15.27
2018-05-15T04:27:09.755Z,15.24
2018-05-15T04:28:09.849Z,15.25
2018-05-15T04:29:09.798Z,15.28
2018-05-15T04:30:09.820Z,15.25
2018-05-15T04:31:09.891Z,15.29
2018-05-15T04:32:09.863Z,15.24
2018-05-15T04:33:09.886Z,15.27
2018-05-15T04:34:09.906Z,15.28
2018-05-15T04:35:10.045Z,15.19
2018-05-15T04:36:09.948Z,15.33
2018-05-15T04:37:09.976Z,15.35
2018-05-15T04:38:09.993Z,15.28
2018-05-15T04:39:10.012Z,15.29
2018-05-15T04:40:10.035Z,15.37
2018-05-15T04:41:10.056Z,15.33
2018-05-15T04:42:10.079Z,15.36
2018-05-15T04:43:10.099Z,15.49
2018-05-15T04:44:10.121Z,15.52
2018-05-15T04:45:10.143Z,15.51
2018-05-15T04:46:10.164Z,15.46
2018-05-15T04:47:10.189Z,15.44
2018-05-15T04:48:10.205Z,15.55
2018-05-15T04:49:10.227Z,15.54
2018-05-15T04:50:10.250Z,15.68
2018-05-15T04:51:10.274Z,15.52
2018-05-15T04:52:10.292Z,15.72
2018-05-15T04:53:10.315Z,15.61
2018-05-15T04:54:10.335Z,15.76
2018-05-15T04:55:10.358Z,15.68
2018-05-15T04:56:10.378Z,15.75
2018-05-15T04:57:10.400Z,15.77
2018-05-15T04:58:10.423Z,15.75
2018-05-15T04:59:10.442Z,15.72
2018-05-15T05:00:10.464Z,15.82
2018-05-15T05:01:10.486Z,15.79
2018-05-15T05:02:10.508Z,15.82
2018-05-15T05:03:10.529Z,15.84
2018-05-15T05:04:10.552Z,15.88
2018-05-15T05:05:10.572Z,15.88
2018-05-15T05:06:10.595Z,15.86
2018-05-15T05:07:10.616Z,15.92
2018-05-15T05:08:10.638Z,16.02
2018-05-15T05:09:10.659Z,16.05
2018-05-15T05:10:10.682Z,15.97
2018-05-15T05:11:10.701Z,16.12
2018-05-15T05:12:10.723Z,16.12
2018-05-15T05:13:10.746Z,16.23
2018-05-15T05:14:10.767Z,16.28
2018-05-15T05:15:10.789Z,16.31
2018-05-15T05:16:10.811Z,16.29
2018-05-15T05:17:10.832Z,16.26
2018-05-15T05:18:10.855Z,16.46
2018-05-15T05:19:10.879Z,16.32
2018-05-15T05:20:10.899Z,16.50
2018-05-15T05:21:10.921Z,16.49
2018-05-15T05:22:10.941Z,16.46
2018-05-15T05:23:10.965Z,16.57
2018-05-15T05:24:10.989Z,16.53
2018-05-15T05:25:11.008Z,16.49
2018-05-15T05:26:11.029Z,16.57
2018-05-15T05:27:11.055Z,16.64
2018-05-15T05:28:11.073Z,16.56
2018-05-15T05:29:11.096Z,16.58
2018-05-15T05:30:11.120Z,16.69
2018-05-15T05:31:11.139Z,16.65
2018-05-15T05:32:11.161Z,16.72
2018-05-15T05:33:11.185Z,16.75
2018-05-15T05:34:11.210Z,16.83
2018-05-15T05:35:11.226Z,16.86
2018-05-15T05:36:11.250Z,16.96
2018-05-15T05:37:11.271Z,16.97
2018-05-15T05:38:11.293Z,16.96
2018-05-15T05:39:11.315Z,16.99
2018-05-15T05:40:11.354Z,17.14
2018-05-15T05:41:11.361Z,17.27
2018-05-15T05:42:11.383Z,17.29
2018-05-15T05:43:11.403Z,17.42
2018-05-15T05:44:11.427Z,17.59
2018-05-15T05:45:11.450Z,17.74
2018-05-15T05:46:11.474Z,17.87
2018-05-15T05:47:11.494Z,17.82
2018-05-15T05:48:11.516Z,17.83
2018-05-15T05:49:11.539Z,17.85
2018-05-15T05:50:11.561Z,17.95
2018-05-15T05:51:11.582Z,18.03
2018-05-15T05:52:11.606Z,18.13
2018-05-15T05:53:11.628Z,18.19
2018-05-15T05:54:11.654Z,18.22
2018-05-15T05:55:11.675Z,18.34
2018-05-15T05:56:11.698Z,18.19
2018-05-15T05:57:11.721Z,18.19
2018-05-15T05:58:11.746Z,18.11
2018-05-15T05:59:11.768Z,18.05
2018-05-15T06:00:11.791Z,18.03
2018-05-15T06:01:11.817Z,18.07
2018-05-15T06:02:11.839Z,17.98
2018-05-15T06:03:11.864Z,17.94
2018-05-15T06:04:11.885Z,17.90
2018-05-15T06:05:11.909Z,18.01
2018-05-15T06:06:11.934Z,18.08
2018-05-15T06:07:11.958Z,18.10
2018-05-15T06:08:11.978Z,18.01
2018-05-15T06:09:12.154Z,18.00
2018-05-15T06:10:12.027Z,18.13
2018-05-15T06:11:12.050Z,18.34
2018-05-15T06:12:12.074Z,18.41
2018-05-15T06:13:12.104Z,18.45
2018-05-15T06:14:12.190Z,18.63
2018-05-15T06:15:12.144Z,18.63
2018-05-15T06:16:12.168Z,18.59
2018-05-15T06:17:12.192Z,18.41
2018-05-15T06:18:12.215Z,18.38
2018-05-15T06:19:12.238Z,18.43
2018-05-15T06:20:12.313Z,18.37
2018-05-15T06:21:12.285Z,18.53
2018-05-15T06:22:12.310Z,18.49
2018-05-15T06:23:12.334Z,18.44
2018-05-15T06:24:12.357Z,18.49
2018-05-15T06:25:12.383Z,18.49
2018-05-15T06:26:12.406Z,18.52
2018-05-15T06:27:12.436Z,18.43
2018-05-15T06:28:12.454Z,18.49
2018-05-15T06:29:12.477Z,18.45
2018-05-15T06:30:12.501Z,18.45
2018-05-15T06:31:12.525Z,18.49
2018-05-15T06:32:12.548Z,18.47
2018-05-15T06:33:12.572Z,18.50
2018-05-15T06:34:12.596Z,18.63
2018-05-15T06:35:12.819Z,18.45
2018-05-15T06:36:12.643Z,18.43
2018-05-15T06:37:12.667Z,18.56
2018-05-15T06:38:12.691Z,18.50
2018-05-15T06:39:12.714Z,18.47
2018-05-15T06:40:12.737Z,18.55
2018-05-15T06:41:12.761Z,18.55
2018-05-15T06:42:12.785Z,18.59
2018-05-15T06:43:12.808Z,18.66
2018-05-15T06:44:12.833Z,18.66
2018-05-15T06:45:12.856Z,18.74
2018-05-15T06:46:12.879Z,18.81
2018-05-15T06:47:12.902Z,18.86
2018-05-15T06:48:12.925Z,19.00
2018-05-15T06:49:12.950Z,18.98
2018-05-15T06:50:12.973Z,18.92
2018-05-15T06:51:12.996Z,18.93
2018-05-15T06:52:13.023Z,19.08
2018-05-15T06:53:13.044Z,19.07
2018-05-15T06:54:13.067Z,19.07
2018-05-15T06:55:13.099Z,19.02
2018-05-15T06:56:13.120Z,19.04
2018-05-15T06:57:13.139Z,18.95
2018-05-15T06:58:13.162Z,18.96
2018-05-15T06:59:13.186Z,19.08
2018-05-15T07:00:13.210Z,19.15
2018-05-15T07:01:13.236Z,19.07
2018-05-15T07:02:13.257Z,19.08
2018-05-15T07:03:13.280Z,18.90
2018-05-15T07:04:13.305Z,18.92
2018-05-15T07:05:13.328Z,19.09
2018-05-15T07:06:13.352Z,19.15
2018-05-15T07:07:13.375Z,19.37
2018-05-15T07:08:13.399Z,19.54
2018-05-15T07:09:13.424Z,19.73
2018-05-15T07:10:13.447Z,19.82
2018-05-15T07:11:13.471Z,19.84
2018-05-15T07:12:13.495Z,19.99
2018-05-15T07:13:13.519Z,20.04
2018-05-15T07:14:13.543Z,19.99
2018-05-15T07:15:13.571Z,20.11
2018-05-15T07:16:13.591Z,20.11
2018-05-15T07:17:13.618Z,20.16
2018-05-15T07:18:13.642Z,20.10
2018-05-15T07:19:13.669Z,20.26
2018-05-15T07:20:13.691Z,20.50
2018-05-15T07:21:13.715Z,20.52
2018-05-15T07:22:13.795Z,20.67
2018-05-15T07:23:13.766Z,20.70
2018-05-15T07:24:13.790Z,20.82
2018-05-15T07:25:13.818Z,20.66
2018-05-15T07:26:13.842Z,20.48
2018-05-15T07:27:13.867Z,20.43
2018-05-15T07:28:13.892Z,20.51
2018-05-15T07:29:13.917Z,20.67
2018-05-15T07:30:13.945Z,20.81
2018-05-15T07:31:13.972Z,20.95
2018-05-15T07:32:13.995Z,20.63
2018-05-15T07:33:14.108Z,20.66
2018-05-15T07:34:14.050Z,20.67
2018-05-15T07:35:14.076Z,20.56
2018-05-15T07:36:14.100Z,20.59
2018-05-15T07:37:14.128Z,20.70
2018-05-15T07:38:14.151Z,20.87
2018-05-15T07:39:14.177Z,20.90
2018-05-15T07:40:14.290Z,21.02
2018-05-15T07:41:14.231Z,20.97
2018-05-15T07:42:14.257Z,20.84
2018-05-15T07:43:14.282Z,20.93
2018-05-15T07:44:14.307Z,21.05
2018-05-15T07:45:14.386Z,21.05
2018-05-15T07:46:14.360Z,21.02
2018-05-15T07:47:14.387Z,21.11
2018-05-15T07:48:14.418Z,21.20
2018-05-15T07:49:14.439Z,21.14
2018-05-15T07:50:14.464Z,21.30
2018-05-15T07:51:14.489Z,21.18
2018-05-15T07:52:14.515Z,21.42
2018-05-15T07:53:14.541Z,21.21
2018-05-15T07:54:14.567Z,21.21
2018-05-15T07:55:14.592Z,21.32
2018-05-15T07:56:14.631Z,21.39
2018-05-15T07:57:14.648Z,21.66
2018-05-15T07:58:14.669Z,21.82
2018-05-15T07:59:14.700Z,21.82
2018-05-15T08:00:14.721Z,21.69
2018-05-15T08:01:14.746Z,21.70
2018-05-15T08:02:14.776Z,21.83
2018-05-15T08:03:14.797Z,21.77
2018-05-15T08:04:14.825Z,21.79
2018-05-15T08:05:14.851Z,21.62
2018-05-15T08:06:14.876Z,21.51
2018-05-15T08:07:14.901Z,21.51
2018-05-15T08:08:14.928Z,21.60
2018-05-15T08:09:14.953Z,21.45
2018-05-15T08:10:14.979Z,21.52
2018-05-15T08:11:15.006Z,21.61
2018-05-15T08:12:15.031Z,21.85
2018-05-15T08:13:15.056Z,21.89
2018-05-15T08:14:15.083Z,21.88
2018-05-15T08:15:15.108Z,21.80
2018-05-15T08:16:15.195Z,22.07
2018-05-15T08:17:15.160Z,22.15
2018-05-15T08:18:15.188Z,22.07
2018-05-15T08:19:15.212Z,21.88
2018-05-15T08:20:15.237Z,21.82
2018-05-15T08:21:15.263Z,22.06
2018-05-15T08:22:15.300Z,22.07
2018-05-15T08:23:15.317Z,22.17
2018-05-15T08:24:15.341Z,22.26
2018-05-15T08:25:15.368Z,22.23
2018-05-15T08:26:15.393Z,22.23
2018-05-15T08:27:15.419Z,22.11
2018-05-15T08:28:15.445Z,22.14
2018-05-15T08:29:15.472Z,22.13
2018-05-15T08:30:15.501Z,22.35
2018-05-15T08:31:15.524Z,22.39
2018-05-15T08:32:15.552Z,22.28
2018-05-15T08:33:15.575Z,22.18
2018-05-15T08:34:15.601Z,22.26
2018-05-15T08:35:15.627Z,22.43
2018-05-15T08:36:15.653Z,22.53
2018-05-15T08:37:15.686Z,22.69
2018-05-15T08:38:15.705Z,22.88
2018-05-15T08:39:15.732Z,22.90
2018-05-15T08:40:15.759Z,22.94
2018-05-15T08:41:15.785Z,22.94
2018-05-15T08:42:15.811Z,22.99
2018-05-15T08:43:15.837Z,22.90
2018-05-15T08:44:15.863Z,22.80
2018-05-15T08:45:15.893Z,22.50
2018-05-15T08:46:15.917Z,22.33
2018-05-15T08:47:15.941Z,21.83
2018-05-15T08:48:15.968Z,22.14
2018-05-15T08:49:16.044Z,22.29
2018-05-15T08:50:16.021Z,22.26
2018-05-15T08:51:16.046Z,22.29
2018-05-15T08:52:16.073Z,22.43
2018-05-15T08:53:16.103Z,22.50
2018-05-15T08:54:16.128Z,22.45
2018-05-15T08:55:16.153Z,22.45
2018-05-15T08:56:16.179Z,22.54
2018-05-15T08:57:16.206Z,22.54
2018-05-15T08:58:16.232Z,22.69
2018-05-15T08:59:16.258Z,22.81
2018-05-15T09:00:16.283Z,22.93
2018-05-15T09:01:16.460Z,22.96
2018-05-15T09:02:16.339Z,22.69
2018-05-15T09:03:16.361Z,22.45
2018-05-15T09:04:16.389Z,22.59
2018-05-15T09:05:16.415Z,22.65
2018-05-15T09:06:16.443Z,22.66
2018-05-15T09:07:16.468Z,22.65
2018-05-15T09:08:16.493Z,22.54
2018-05-15T09:09:16.528Z,22.70
2018-05-15T09:10:16.547Z,22.68
2018-05-15T09:11:16.572Z,22.73
2018-05-15T09:12:16.599Z,22.69
2018-05-15T09:13:16.626Z,22.69
2018-05-15T09:14:16.652Z,22.85
2018-05-15T09:15:16.679Z,22.70
2018-05-15T09:16:16.704Z,22.73
2018-05-15T09:17:16.731Z,22.81
2018-05-15T09:18:16.836Z,22.83
2018-05-15T09:19:16.791Z,23.10
2018-05-15T09:20:16.809Z,23.15
2018-05-15T09:21:16.837Z,23.21
2018-05-15T09:22:16.862Z,23.17
2018-05-15T09:23:16.893Z,23.18
2018-05-15T09:24:16.927Z,23.06
2018-05-15T09:25:16.942Z,22.83
2018-05-15T09:26:16.969Z,22.99
2018-05-15T09:27:16.995Z,23.10
2018-05-15T09:28:17.020Z,23.20
2018-05-15T09:29:17.136Z,23.27
2018-05-15T09:30:17.075Z,23.32
2018-05-15T09:31:17.099Z,23.24
2018-05-15T09:32:17.126Z,23.09
2018-05-15T09:33:17.155Z,23.02
2018-05-15T09:34:17.181Z,23.12
2018-05-15T09:35:17.211Z,23.17
2018-05-15T09:36:17.232Z,23.25
2018-05-15T09:37:17.259Z,23.27
2018-05-15T09:38:17.287Z,23.31
2018-05-15T09:39:17.311Z,23.08
2018-05-15T09:40:17.338Z,23.12
2018-05-15T09:41:17.364Z,23.12
2018-05-15T09:42:17.395Z,23.17
2018-05-15T09:43:17.419Z,23.21
2018-05-15T09:44:17.445Z,23.20
2018-05-15T09:45:17.481Z,23.13
2018-05-15T09:46:17.498Z,23.09
2018-05-15T09:47:17.525Z,23.13
2018-05-15T09:48:17.556Z,23.18
2018-05-15T09:49:17.579Z,23.28
2018-05-15T09:50:17.605Z,23.44
2018-05-15T09:51:17.631Z,23.46
2018-05-15T09:52:17.669Z,23.55
2018-05-15T09:53:17.686Z,23.71
2018-05-15T09:54:17.712Z,23.71
2018-05-15T09:55:17.739Z,23.71
2018-05-15T09:56:17.766Z,23.62
2018-05-15T09:57:17.793Z,23.51
2018-05-15T09:58:17.820Z,23.43
2018-05-15T09:59:17.846Z,23.25
2018-05-15T10:00:17.873Z,23.44
2018-05-15T10:01:17.901Z,23.37
2018-05-15T10:02:17.928Z,23.15
2018-05-15T10:03:17.957Z,23.20
2018-05-15T10:04:17.982Z,23.10
2018-05-15T10:05:18.008Z,23.09
2018-05-15T10:06:18.035Z,23.10
2018-05-15T10:07:18.060Z,23.25
2018-05-15T10:08:18.089Z,23.31
2018-05-15T10:09:18.115Z,23.41
2018-05-15T10:10:18.144Z,23.63
2018-05-15T10:11:18.168Z,23.83
2018-05-15T10:12:18.196Z,23.68
2018-05-15T10:13:18.223Z,23.58
2018-05-15T10:14:18.293Z,23.46
2018-05-15T10:15:18.278Z,23.47
2018-05-15T10:16:18.303Z,23.68
2018-05-15T10:17:18.330Z,23.86
2018-05-15T10:18:18.357Z,23.93
2018-05-15T10:19:18.385Z,23.98
2018-05-15T10:20:18.415Z,24.17
2018-05-15T10:21:18.437Z,24.06
2018-05-15T10:22:18.465Z,23.99
2018-05-15T10:23:18.491Z,24.01
2018-05-15T10:24:18.519Z,24.21
2018-05-15T10:25:18.546Z,24.28
2018-05-15T10:26:18.593Z,24.17
2018-05-15T10:27:18.602Z,24.24
2018-05-15T10:28:18.628Z,24.32
2018-05-15T10:29:18.654Z,24.35
2018-05-15T10:30:18.683Z,24.32
2018-05-15T10:31:18.709Z,24.26
2018-05-15T10:32:19.395Z,24.26
2018-05-15T10:33:18.765Z,24.21
2018-05-15T10:34:18.795Z,24.23
2018-05-15T10:35:18.819Z,24.08
2018-05-15T10:36:18.845Z,24.01
2018-05-15T10:37:18.876Z,24.06
2018-05-15T10:38:18.901Z,24.14
2018-05-15T10:39:18.928Z,23.83
2018-05-15T10:40:18.960Z,23.78
2018-05-15T10:41:18.987Z,23.87
2018-05-15T10:42:19.011Z,23.99
2018-05-15T10:43:19.040Z,24.17
2018-05-15T10:44:19.125Z,24.18
2018-05-15T10:45:19.096Z,24.14
2018-05-15T10:46:19.120Z,24.02
2018-05-15T10:47:19.147Z,24.17
2018-05-15T10:48:19.175Z,24.32
2018-05-15T10:49:19.203Z,24.18
2018-05-15T10:50:19.232Z,23.92
2018-05-15T10:51:19.258Z,23.95
2018-05-15T10:52:19.285Z,23.87
2018-05-15T10:53:19.312Z,24.06
2018-05-15T10:54:19.340Z,24.06
2018-05-15T10:55:19.366Z,24.03
2018-05-15T10:56:19.394Z,23.87
2018-05-15T10:57:19.423Z,24.01
2018-05-15T10:58:19.450Z,23.87
2018-05-15T10:59:19.476Z,23.71
2018-05-15T11:00:19.505Z,23.54
2018-05-15T11:01:19.532Z,23.71
2018-05-15T11:02:19.559Z,23.87
2018-05-15T11:03:19.587Z,23.95
2018-05-15T11:04:19.614Z,24.02
2018-05-15T11:05:19.641Z,23.92
2018-05-15T11:06:19.675Z,23.69
2018-05-15T11:07:19.694Z,23.73
2018-05-15T11:08:19.725Z,23.77
2018-05-15T11:09:19.752Z,23.56
2018-05-15T11:10:19.776Z,23.62
2018-05-15T11:11:19.805Z,23.84
2018-05-15T11:12:19.832Z,24.02
2018-05-15T11:13:19.859Z,24.10
2018-05-15T11:14:19.885Z,24.02
2018-05-15T11:15:19.912Z,23.88
2018-05-15T11:16:19.939Z,24.05
2018-05-15T11:17:19.966Z,24.06
2018-05-15T11:18:19.993Z,23.93
2018-05-15T11:19:20.021Z,23.91
2018-05-15T11:20:20.048Z,23.69
2018-05-15T11:21:20.075Z,23.21
2018-05-15T11:22:20.102Z,23.15
2018-05-15T11:23:20.130Z,23.18
2018-05-15T11:24:20.156Z,23.31
2018-05-15T11:25:20.183Z,23.31
2018-05-15T11:26:20.307Z,23.28
2018-05-15T11:27:20.237Z,23.13
2018-05-15T11:28:20.264Z,23.27
2018-05-15T11:29:20.343Z,23.43
2018-05-15T11:30:20.319Z,23.63
2018-05-15T11:31:20.349Z,23.73
2018-05-15T11:32:21.073Z,23.96
2018-05-15T11:33:20.399Z,24.05
2018-05-15T11:34:20.427Z,24.01
2018-05-15T11:35:20.452Z,23.86
2018-05-15T11:36:20.483Z,23.81
2018-05-15T11:37:20.511Z,23.92
2018-05-15T11:38:20.537Z,23.76
2018-05-15T11:39:20.560Z,23.43
2018-05-15T11:40:20.589Z,23.17
2018-05-15T11:41:20.623Z,23.15
2018-05-15T11:42:20.642Z,23.10
2018-05-15T11:43:20.670Z,23.17
2018-05-15T11:44:20.698Z,23.40
2018-05-15T11:45:20.725Z,23.48
2018-05-15T11:46:20.763Z,23.81
2018-05-15T11:47:20.824Z,24.03
2018-05-15T11:48:21.483Z,24.11
2018-05-15T11:49:21.272Z,24.10
2018-05-15T11:50:21.984Z,24.17
2018-05-15T11:51:21.584Z,24.05
2018-05-15T11:52:21.588Z,24.06
2018-05-15T11:53:21.171Z,24.08
2018-05-15T11:54:20.967Z,24.08
2018-05-15T11:55:20.997Z,23.98
2018-05-15T11:56:21.024Z,24.05
2018-05-15T11:57:21.047Z,24.01
2018-05-15T11:58:21.156Z,23.80
2018-05-15T11:59:21.102Z,23.91
2018-05-15T12:00:21.128Z,23.71
2018-05-15T12:01:21.156Z,23.59
2018-05-15T12:02:21.189Z,23.59
2018-05-15T12:03:21.210Z,23.69
2018-05-15T12:04:21.236Z,23.76
2018-05-15T12:05:21.263Z,23.92
2018-05-15T12:06:21.292Z,24.01
2018-05-15T12:07:21.319Z,23.98
2018-05-15T12:08:21.531Z,23.76
2018-05-15T12:09:21.372Z,23.73
2018-05-15T12:10:21.400Z,23.69
2018-05-15T12:11:21.431Z,23.40
2018-05-15T12:12:21.453Z,23.41
2018-05-15T12:13:21.481Z,23.43
2018-05-15T12:14:21.558Z,23.50
2018-05-15T12:15:21.535Z,23.69
2018-05-15T12:16:21.563Z,23.83
2018-05-15T12:17:21.590Z,23.76
2018-05-15T12:18:21.616Z,23.91
2018-05-15T12:19:21.694Z,23.81
2018-05-15T12:20:21.676Z,23.91
2018-05-15T12:21:21.698Z,24.02
2018-05-15T12:22:21.725Z,24.10
2018-05-15T12:23:21.750Z,24.10
2018-05-15T12:24:21.777Z,24.18
2018-05-15T12:25:21.804Z,24.16
2018-05-15T12:26:21.833Z,24.20
2018-05-15T12:27:21.858Z,24.33
2018-05-15T12:28:21.888Z,24.39
2018-05-15T12:29:21.913Z,24.38
2018-05-15T12:30:21.940Z,24.36
2018-05-15T12:31:22.018Z,24.13
2018-05-15T12:32:21.996Z,24.24
2018-05-15T12:33:22.021Z,24.05
2018-05-15T12:34:22.049Z,24.21
2018-05-15T12:35:22.075Z,24.23
2018-05-15T12:36:22.103Z,24.32
2018-05-15T12:37:22.131Z,24.32
2018-05-15T12:38:22.157Z,24.32
2018-05-15T12:39:22.184Z,24.35
2018-05-15T12:40:22.212Z,24.29
2018-05-15T12:41:22.310Z,24.24
2018-05-15T12:42:22.268Z,24.30
2018-05-15T12:43:22.292Z,24.03
2018-05-15T12:44:22.438Z,23.96
2018-05-15T12:45:22.347Z,24.24
2018-05-15T12:46:22.375Z,24.23
2018-05-15T12:47:22.404Z,24.17
2018-05-15T12:48:22.460Z,23.99
2018-05-15T12:49:22.456Z,24.03
2018-05-15T12:50:22.484Z,24.18
2018-05-15T12:51:22.516Z,24.23
2018-05-15T12:52:22.538Z,24.18